Pt26 — PT26 — position and weather

sailwx.info

Track history (hours):
 
Tides and Currents Weather Stations Pressure Air Temp Water Temp Dewpoint Dewpoint Depression Visibility Wind Speed Wind Dir Waves Ship Positions

Pt26

Last reported at 2018-Apr-03 09:57 UTC. Time now 2018-Jun-23 16:03 UTC.
Position N 38°21' W 076°18'.
Warning: this ship's position is months out of date.

Length 8 m; draft 1.6 m.

Type: Sailing vessel. MMSI: 338142627.

Date/timePositionNaut miles runAvg speedWind from/ knotsBaromVisibWave heightAir tempDewpointWater temp
2018-Apr-03 09:57N 38°21' W 076°18'7 5.8
2018-Apr-03 08:49N 38°15' W 076°15'4 6.4
2018-Apr-03 08:15N 38°11' W 076°14'7 6.2
2018-Apr-03 07:06N 38°04' W 076°12'6 5.9
2018-Apr-03 06:07N 37°59' W 076°10'2 6.4
2018-Apr-03 05:47N 37°57' W 076°09'3 6.3
2018-Apr-03 05:19N 37°54' W 076°08'3 6.0
2018-Apr-03 04:50N 37°51' W 076°08'3 5.2
2018-Apr-03 04:18N 37°48' W 076°09'2 4.7
2018-Apr-03 03:57N 37°47' W 076°10'2 3.9
2018-Apr-03 03:29N 37°45' W 076°11'2 4.6
2018-Apr-03 03:00N 37°43' W 076°12'3 4.6
2018-Apr-03 02:27N 37°40' W 076°12'7 4.4
2018-Apr-03 00:50N 37°33' W 076°14'3 3.7
2018-Apr-02 23:57N 37°32' W 076°18'2 0.2
2018-Apr-02 13:04N 37°33' W 076°20'0 0.0
2018-Apr-02 01:41N 37°33' W 076°20'14 3.3
2018-Apr-01 21:27N 37°21' W 076°11'7 3.7
2018-Apr-01 19:32N 37°14' W 076°12'0 4.5
2018-Apr-01 19:30N 37°14' W 076°12'12 4.9
2018-Apr-01 17:04N 37°02' W 076°16'0 6.4
2018-Apr-01 17:01N 37°02' W 076°16'3 5.8
2018-Apr-01 16:26N 36°59' W 076°19'3 5.9
2018-Apr-01 16:00N 36°57' W 076°20'3 6.0
2018-Apr-01 15:30N 36°54' W 076°20'3 5.6
2018-Apr-01 15:00N 36°52' W 076°19'3 5.4
2018-Apr-01 14:30N 36°49' W 076°17'3 5.1
2018-Apr-01 14:00N 36°47' W 076°18'1 2.7
2018-Apr-01 13:30N 36°45' W 076°18'2 0.7
2018-Apr-01 10:24N 36°45' W 076°20'0 0.0
2018-Apr-01 00:27N 36°45' W 076°20'0 0.0
2018-Apr-01 00:00N 36°45' W 076°20'0 0.0
2018-Mar-31 23:28N 36°45' W 076°20'0 0.0
2018-Mar-31 22:59N 36°45' W 076°20'0 0.0
2018-Mar-31 22:29N 36°45' W 076°20'0 0.0
2018-Mar-31 21:59N 36°45' W 076°20'0 0.3
2018-Mar-31 21:30N 36°45' W 076°21'0 0.3
2018-Mar-31 21:01N 36°45' W 076°20'0 0.0
2018-Mar-31 20:29N 36°45' W 076°20'0 0.0
2018-Mar-31 19:59N 36°45' W 076°20'0 0.7
2018-Mar-31 19:28N 36°44' W 076°21'0 0.1
2018-Mar-31 19:00N 36°44' W 076°21'2 4.3
2018-Mar-31 18:30N 36°42' W 076°21'3 5.6
2018-Mar-31 18:00N 36°40' W 076°22'3 5.6
2018-Mar-31 17:29N 36°37' W 076°23'3 5.4
2018-Mar-31 17:00N 36°34' W 076°23'3 5.3
2018-Mar-31 16:30N 36°32' W 076°22'3 5.1
2018-Mar-31 16:00N 36°29' W 076°21'3 5.2
2018-Mar-31 15:30N 36°27' W 076°20'0 0.8
2018-Mar-31 14:57N 36°26' W 076°19'0 0.1
2018-Mar-31 14:29N 36°26' W 076°19'0 0.0
2018-Mar-31 13:59N 36°26' W 076°19'1 1.1
2018-Mar-31 13:30N 36°26' W 076°19'2 4.5
2018-Mar-31 13:00N 36°24' W 076°18'2 4.4
2018-Mar-31 12:30N 36°23' W 076°15'1 2.9
2018-Mar-31 12:00N 36°22' W 076°14'2 4.7
2018-Mar-31 11:30N 36°20' W 076°13'2 3.3
2018-Mar-31 10:59N 36°19' W 076°11'1 2.6
2018-Mar-31 10:28N 36°18' W 076°13'0 0.0
2018-Mar-29 16:37N 36°18' W 076°13'0 0.2
2018-Mar-29 16:23N 36°18' W 076°13'2 4.1
2018-Mar-29 16:00N 36°17' W 076°11'3 5.7
2018-Mar-29 15:30N 36°16' W 076°08'3 5.6
2018-Mar-29 15:00N 36°14' W 076°06'3 5.9
2018-Mar-29 14:30N 36°12' W 076°03'2 4.9
2018-Mar-29 14:00N 36°11' W 076°01'2 4.8
2018-Mar-29 13:30N 36°09' W 075°58'3 5.2
2018-Mar-29 13:00N 36°06' W 075°58'3 5.1
2018-Mar-29 12:30N 36°04' W 075°59'3 5.2
2018-Mar-29 12:00N 36°01' W 075°59'3 5.3
2018-Mar-29 11:30N 35°58' W 075°59'2 5.0
2018-Mar-29 11:00N 35°56' W 075°60'2 4.3
2018-Mar-29 10:30N 35°54' W 076°01'23 1.2
2018-Mar-28 14:51N 35°35' W 076°17'5 6.1
2018-Mar-28 14:02N 35°34' W 076°23'0 6.2
2018-Mar-28 14:00N 35°34' W 076°23'3 6.4
2018-Mar-28 13:30N 35°33' W 076°27'3 5.6
2018-Mar-28 13:00N 35°31' W 076°30'3 5.8
2018-Mar-28 12:30N 35°31' W 076°33'3 5.5
2018-Mar-28 12:00N 35°31' W 076°36'2 0.1
2018-Mar-27 22:38N 35°33' W 076°38'0 0.0
2018-Mar-27 22:28N 35°33' W 076°38'0 0.0
2018-Mar-27 22:00N 35°33' W 076°38'0 0.5
2018-Mar-27 21:30N 35°32' W 076°38'0 0.5
2018-Mar-27 21:00N 35°32' W 076°37'0 0.0
2018-Mar-27 20:29N 35°32' W 076°37'2 4.1
2018-Mar-27 19:59N 35°30' W 076°36'2 5.2
2018-Mar-27 19:30N 35°28' W 076°35'3 5.3
2018-Mar-27 19:00N 35°26' W 076°34'3 5.2
2018-Mar-27 18:30N 35°23' W 076°33'3 5.3
2018-Mar-27 18:00N 35°21' W 076°35'3 5.3
2018-Mar-27 17:30N 35°19' W 076°37'3 5.3
2018-Mar-27 17:00N 35°16' W 076°36'3 5.1
2018-Mar-27 16:31N 35°14' W 076°35'3 5.3
2018-Mar-27 16:00N 35°11' W 076°34'3 5.8
2018-Mar-27 15:30N 35°10' W 076°31'2 4.6
2018-Mar-27 15:00N 35°07' W 076°31'3 5.3
2018-Mar-27 14:30N 35°05' W 076°33'2 4.8
2018-Mar-27 14:00N 35°03' W 076°35'3 5.0
2018-Mar-27 13:29N 35°02' W 076°37'2 4.5
2018-Mar-27 13:00N 35°01' W 076°40'2 4.4
2018-Mar-27 12:30N 34°59' W 076°41'2 3.1
2018-Mar-27 12:00N 34°57' W 076°41'2 4.0
2018-Mar-27 11:31N 34°56' W 076°39'0 0.4
2018-Mar-27 10:59N 34°56' W 076°39'0 0.0
2018-Mar-27 10:31N 34°56' W 076°39'0 0.0
2018-Mar-27 09:54N 34°56' W 076°39'0 0.0
2018-Mar-27 09:29N 34°56' W 076°39'0 0.0
2018-Mar-27 08:58N 34°56' W 076°39'0 0.0
2018-Mar-27 08:28N 34°56' W 076°39'0 0.0
2018-Mar-27 07:58N 34°56' W 076°39'0 0.0
2018-Mar-27 07:28N 34°56' W 076°39'0 0.0
2018-Mar-27 07:00N 34°56' W 076°39'0 0.0
2018-Mar-27 06:30N 34°56' W 076°39'0 0.0
2018-Mar-27 05:57N 34°56' W 076°39'0 0.0
2018-Mar-27 05:29N 34°56' W 076°39'0 0.0
2018-Mar-27 04:59N 34°56' W 076°39'0 0.0
2018-Mar-27 04:29N 34°56' W 076°39'0 0.0
2018-Mar-27 03:59N 34°56' W 076°39'0 0.0
2018-Mar-27 02:43N 34°56' W 076°39'0 0.0
2018-Mar-27 02:29N 34°56' W 076°39'0 0.0
2018-Mar-27 02:00N 34°56' W 076°39'0 0.0
2018-Mar-27 01:30N 34°56' W 076°39'0 0.0
2018-Mar-27 00:59N 34°56' W 076°39'0 0.0
2018-Mar-27 00:30N 34°56' W 076°39'0 0.0
2018-Mar-27 00:00N 34°56' W 076°39'1 2.0
2018-Mar-26 23:31N 34°55' W 076°40'2 4.5
2018-Mar-26 23:00N 34°53' W 076°41'2 4.6
2018-Mar-26 22:30N 34°51' W 076°41'2 4.5
2018-Mar-26 22:00N 34°49' W 076°41'2 4.5
2018-Mar-26 21:30N 34°47' W 076°41'2 4.5
2018-Mar-26 21:00N 34°44' W 076°41'2 3.9
2018-Mar-26 20:31N 34°43' W 076°42'2 3.5
2018-Mar-26 19:59N 34°43' W 076°45'2 3.2
2018-Mar-26 19:31N 34°43' W 076°46'2 3.8
2018-Mar-26 19:00N 34°43' W 076°49'2 4.3
2018-Mar-26 18:31N 34°43' W 076°51'2 4.6
2018-Mar-26 18:00N 34°43' W 076°54'2 4.8
2018-Mar-26 17:30N 34°43' W 076°57'2 4.7
2018-Mar-26 17:00N 34°42' W 076°60'2 4.0
2018-Mar-26 16:30N 34°41' W 077°02'2 3.4
2018-Mar-26 16:00N 34°40' W 077°04'2 3.5
2018-Mar-26 15:30N 34°40' W 077°06'2 3.6
2018-Mar-26 15:01N 34°40' W 077°08'2 3.6
2018-Mar-26 14:30N 34°39' W 077°10'2 3.4
2018-Mar-26 14:00N 34°38' W 077°12'2 3.3
2018-Mar-26 13:30N 34°37' W 077°13'2 3.2
2018-Mar-26 13:00N 34°36' W 077°14'2 4.4
2018-Mar-26 12:28N 34°34' W 077°16'2 4.4
2018-Mar-26 12:00N 34°33' W 077°18'3 0.1
2018-Mar-24 12:27N 34°33' W 077°22'0 0.0
2018-Mar-24 11:58N 34°33' W 077°22'0 0.0
2018-Mar-24 11:28N 34°33' W 077°22'0 0.0
2018-Mar-24 10:58N 34°33' W 077°22'0 0.0
2018-Mar-24 10:28N 34°33' W 077°22'0 0.0
2018-Mar-24 09:58N 34°33' W 077°22'  
Track history (hours):
 
Tides and Currents Weather Stations Pressure Air Temp Water Temp Dewpoint Dewpoint Depression Visibility Wind Speed Wind Dir Waves Ship Positions

Pt26

Last reported at 2018-Apr-03 09:57 UTC. Time now 2018-Jun-23 16:03 UTC.
Position N 38°21' W 076°18'.
Warning: this ship's position is months out of date.

Length 8 m; draft 1.6 m.

Type: Sailing vessel. MMSI: 338142627.

Date/timePositionNaut miles runAvg speedWind from/ knotsBaromVisibWave heightAir tempDewpointWater temp
2018-Apr-03 09:57N 38°21' W 076°18'7 5.8
2018-Apr-03 08:49N 38°15' W 076°15'4 6.4
2018-Apr-03 08:15N 38°11' W 076°14'7 6.2
2018-Apr-03 07:06N 38°04' W 076°12'6 5.9
2018-Apr-03 06:07N 37°59' W 076°10'2 6.4
2018-Apr-03 05:47N 37°57' W 076°09'3 6.3
2018-Apr-03 05:19N 37°54' W 076°08'3 6.0
2018-Apr-03 04:50N 37°51' W 076°08'3 5.2
2018-Apr-03 04:18N 37°48' W 076°09'2 4.7
2018-Apr-03 03:57N 37°47' W 076°10'2 3.9
2018-Apr-03 03:29N 37°45' W 076°11'2 4.6
2018-Apr-03 03:00N 37°43' W 076°12'3 4.6
2018-Apr-03 02:27N 37°40' W 076°12'7 4.4
2018-Apr-03 00:50N 37°33' W 076°14'3 3.7
2018-Apr-02 23:57N 37°32' W 076°18'2 0.2
2018-Apr-02 13:04N 37°33' W 076°20'0 0.0
2018-Apr-02 01:41N 37°33' W 076°20'14 3.3
2018-Apr-01 21:27N 37°21' W 076°11'7 3.7
2018-Apr-01 19:32N 37°14' W 076°12'0 4.5
2018-Apr-01 19:30N 37°14' W 076°12'12 4.9
2018-Apr-01 17:04N 37°02' W 076°16'0 6.4
2018-Apr-01 17:01N 37°02' W 076°16'3 5.8
2018-Apr-01 16:26N 36°59' W 076°19'3 5.9
2018-Apr-01 16:00N 36°57' W 076°20'3 6.0
2018-Apr-01 15:30N 36°54' W 076°20'3 5.6
2018-Apr-01 15:00N 36°52' W 076°19'3 5.4
2018-Apr-01 14:30N 36°49' W 076°17'3 5.1
2018-Apr-01 14:00N 36°47' W 076°18'1 2.7
2018-Apr-01 13:30N 36°45' W 076°18'2 0.7
2018-Apr-01 10:24N 36°45' W 076°20'0 0.0
2018-Apr-01 00:27N 36°45' W 076°20'0 0.0
2018-Apr-01 00:00N 36°45' W 076°20'0 0.0
2018-Mar-31 23:28N 36°45' W 076°20'0 0.0
2018-Mar-31 22:59N 36°45' W 076°20'0 0.0
2018-Mar-31 22:29N 36°45' W 076°20'0 0.0
2018-Mar-31 21:59N 36°45' W 076°20'0 0.3
2018-Mar-31 21:30N 36°45' W 076°21'0 0.3
2018-Mar-31 21:01N 36°45' W 076°20'0 0.0
2018-Mar-31 20:29N 36°45' W 076°20'0 0.0
2018-Mar-31 19:59N 36°45' W 076°20'0 0.7
2018-Mar-31 19:28N 36°44' W 076°21'0 0.1
2018-Mar-31 19:00N 36°44' W 076°21'2 4.3
2018-Mar-31 18:30N 36°42' W 076°21'3 5.6
2018-Mar-31 18:00N 36°40' W 076°22'3 5.6
2018-Mar-31 17:29N 36°37' W 076°23'3 5.4
2018-Mar-31 17:00N 36°34' W 076°23'3 5.3
2018-Mar-31 16:30N 36°32' W 076°22'3 5.1
2018-Mar-31 16:00N 36°29' W 076°21'3 5.2
2018-Mar-31 15:30N 36°27' W 076°20'0 0.8
2018-Mar-31 14:57N 36°26' W 076°19'0 0.1
2018-Mar-31 14:29N 36°26' W 076°19'0 0.0
2018-Mar-31 13:59N 36°26' W 076°19'1 1.1
2018-Mar-31 13:30N 36°26' W 076°19'2 4.5
2018-Mar-31 13:00N 36°24' W 076°18'2 4.4
2018-Mar-31 12:30N 36°23' W 076°15'1 2.9
2018-Mar-31 12:00N 36°22' W 076°14'2 4.7
2018-Mar-31 11:30N 36°20' W 076°13'2 3.3
2018-Mar-31 10:59N 36°19' W 076°11'1 2.6
2018-Mar-31 10:28N 36°18' W 076°13'0 0.0
2018-Mar-29 16:37N 36°18' W 076°13'0 0.2
2018-Mar-29 16:23N 36°18' W 076°13'2 4.1
2018-Mar-29 16:00N 36°17' W 076°11'3 5.7
2018-Mar-29 15:30N 36°16' W 076°08'3 5.6
2018-Mar-29 15:00N 36°14' W 076°06'3 5.9
2018-Mar-29 14:30N 36°12' W 076°03'2 4.9
2018-Mar-29 14:00N 36°11' W 076°01'2 4.8
2018-Mar-29 13:30N 36°09' W 075°58'3 5.2
2018-Mar-29 13:00N 36°06' W 075°58'3 5.1
2018-Mar-29 12:30N 36°04' W 075°59'3 5.2
2018-Mar-29 12:00N 36°01' W 075°59'3 5.3
2018-Mar-29 11:30N 35°58' W 075°59'2 5.0
2018-Mar-29 11:00N 35°56' W 075°60'2 4.3
2018-Mar-29 10:30N 35°54' W 076°01'23 1.2
2018-Mar-28 14:51N 35°35' W 076°17'5 6.1
2018-Mar-28 14:02N 35°34' W 076°23'0 6.2
2018-Mar-28 14:00N 35°34' W 076°23'3 6.4
2018-Mar-28 13:30N 35°33' W 076°27'3 5.6
2018-Mar-28 13:00N 35°31' W 076°30'3 5.8
2018-Mar-28 12:30N 35°31' W 076°33'3 5.5
2018-Mar-28 12:00N 35°31' W 076°36'2 0.1
2018-Mar-27 22:38N 35°33' W 076°38'0 0.0
2018-Mar-27 22:28N 35°33' W 076°38'0 0.0
2018-Mar-27 22:00N 35°33' W 076°38'0 0.5
2018-Mar-27 21:30N 35°32' W 076°38'0 0.5
2018-Mar-27 21:00N 35°32' W 076°37'0 0.0
2018-Mar-27 20:29N 35°32' W 076°37'2 4.1
2018-Mar-27 19:59N 35°30' W 076°36'2 5.2
2018-Mar-27 19:30N 35°28' W 076°35'3 5.3
2018-Mar-27 19:00N 35°26' W 076°34'3 5.2
2018-Mar-27 18:30N 35°23' W 076°33'3 5.3
2018-Mar-27 18:00N 35°21' W 076°35'3 5.3
2018-Mar-27 17:30N 35°19' W 076°37'3 5.3
2018-Mar-27 17:00N 35°16' W 076°36'3 5.1
2018-Mar-27 16:31N 35°14' W 076°35'3 5.3
2018-Mar-27 16:00N 35°11' W 076°34'3 5.8
2018-Mar-27 15:30N 35°10' W 076°31'2 4.6
2018-Mar-27 15:00N 35°07' W 076°31'3 5.3
2018-Mar-27 14:30N 35°05' W 076°33'2 4.8
2018-Mar-27 14:00N 35°03' W 076°35'3 5.0
2018-Mar-27 13:29N 35°02' W 076°37'2 4.5
2018-Mar-27 13:00N 35°01' W 076°40'2 4.4
2018-Mar-27 12:30N 34°59' W 076°41'2 3.1
2018-Mar-27 12:00N 34°57' W 076°41'2 4.0
2018-Mar-27 11:31N 34°56' W 076°39'0 0.4
2018-Mar-27 10:59N 34°56' W 076°39'0 0.0
2018-Mar-27 10:31N 34°56' W 076°39'0 0.0
2018-Mar-27 09:54N 34°56' W 076°39'0 0.0
2018-Mar-27 09:29N 34°56' W 076°39'0 0.0
2018-Mar-27 08:58N 34°56' W 076°39'0 0.0
2018-Mar-27 08:28N 34°56' W 076°39'0 0.0
2018-Mar-27 07:58N 34°56' W 076°39'0 0.0
2018-Mar-27 07:28N 34°56' W 076°39'0 0.0
2018-Mar-27 07:00N 34°56' W 076°39'0 0.0
2018-Mar-27 06:30N 34°56' W 076°39'0 0.0
2018-Mar-27 05:57N 34°56' W 076°39'0 0.0
2018-Mar-27 05:29N 34°56' W 076°39'0 0.0
2018-Mar-27 04:59N 34°56' W 076°39'0 0.0
2018-Mar-27 04:29N 34°56' W 076°39'0 0.0
2018-Mar-27 03:59N 34°56' W 076°39'0 0.0
2018-Mar-27 02:43N 34°56' W 076°39'0 0.0
2018-Mar-27 02:29N 34°56' W 076°39'0 0.0
2018-Mar-27 02:00N 34°56' W 076°39'0 0.0
2018-Mar-27 01:30N 34°56' W 076°39'0 0.0
2018-Mar-27 00:59N 34°56' W 076°39'0 0.0
2018-Mar-27 00:30N 34°56' W 076°39'0 0.0
2018-Mar-27 00:00N 34°56' W 076°39'1 2.0
2018-Mar-26 23:31N 34°55' W 076°40'2 4.5
2018-Mar-26 23:00N 34°53' W 076°41'2 4.6
2018-Mar-26 22:30N 34°51' W 076°41'2 4.5
2018-Mar-26 22:00N 34°49' W 076°41'2 4.5
2018-Mar-26 21:30N 34°47' W 076°41'2 4.5
2018-Mar-26 21:00N 34°44' W 076°41'2 3.9
2018-Mar-26 20:31N 34°43' W 076°42'2 3.5
2018-Mar-26 19:59N 34°43' W 076°45'2 3.2
2018-Mar-26 19:31N 34°43' W 076°46'2 3.8
2018-Mar-26 19:00N 34°43' W 076°49'2 4.3
2018-Mar-26 18:31N 34°43' W 076°51'2 4.6
2018-Mar-26 18:00N 34°43' W 076°54'2 4.8
2018-Mar-26 17:30N 34°43' W 076°57'2 4.7
2018-Mar-26 17:00N 34°42' W 076°60'2 4.0
2018-Mar-26 16:30N 34°41' W 077°02'2 3.4
2018-Mar-26 16:00N 34°40' W 077°04'2 3.5
2018-Mar-26 15:30N 34°40' W 077°06'2 3.6
2018-Mar-26 15:01N 34°40' W 077°08'2 3.6
2018-Mar-26 14:30N 34°39' W 077°10'2 3.4
2018-Mar-26 14:00N 34°38' W 077°12'2 3.3
2018-Mar-26 13:30N 34°37' W 077°13'2 3.2
2018-Mar-26 13:00N 34°36' W 077°14'2 4.4
2018-Mar-26 12:28N 34°34' W 077°16'2 4.4
2018-Mar-26 12:00N 34°33' W 077°18'3 0.1
2018-Mar-24 12:27N 34°33' W 077°22'0 0.0
2018-Mar-24 11:58N 34°33' W 077°22'0 0.0
2018-Mar-24 11:28N 34°33' W 077°22'0 0.0
2018-Mar-24 10:58N 34°33' W 077°22'0 0.0
2018-Mar-24 10:28N 34°33' W 077°22'0 0.0
2018-Mar-24 09:58N 34°33' W 077°22'  

Dump ship's entire track history